CYWK

Wabush Airport

Wabush, Canada
METAR CYWK 131000Z 25008KT 15SM SKC M23/M28 A3011 RMK SLP265
Observed Flight Rules
Dec-13 @ 10:00 UTC (an hour ago) Visual Flight Rules
Wind Visibility Clouds
250° at 8 knots 15 miles
  • Clear skies
Temperatures Readings
Current -23°C / -9°F
Dewpoint -28°C / -18°F
Humidity 64%
Altimeter 30.11" Hg
Pressure 1026.5 hPa
Elevation 551
METAR CYWK 131000Z 25008KT 15SM SKC M23/M28 A3011 RMK SLP265
Observed Flight Rules
Dec-13 @ 10:00 UTC
(an hour ago)
VFR
Wind Visibility
250° at 8 knots 15 miles
Clouds
  • Clear skies
Temperature Dewpoint
-23°C / -9°F -28°C / -18°F
Humidity Altimeter Pressure
64% 30.11" Hg 1026.5 hPa